createdAt,value
2023-01-19T00:00:38.642Z,6.73
2023-01-19T00:03:06.525Z,6.77
2023-01-19T00:05:34.539Z,6.70
2023-01-19T00:08:14.498Z,7.03
2023-01-19T00:10:42.344Z,6.80
2023-01-19T00:13:11.253Z,6.93
2023-01-19T00:15:39.146Z,6.43
2023-01-19T00:18:07.635Z,5.93
2023-01-19T00:20:36.621Z,6.43
2023-01-19T00:23:04.995Z,6.10
2023-01-19T00:25:32.640Z,7.13
2023-01-19T00:28:01.677Z,6.60
2023-01-19T00:30:31.020Z,6.43
2023-01-19T00:32:58.950Z,6.70
2023-01-19T00:35:26.931Z,6.43
2023-01-19T00:37:54.554Z,6.73
2023-01-19T00:40:22.151Z,6.60
2023-01-19T00:42:49.654Z,6.67
2023-01-19T00:45:19.043Z,6.77
2023-01-19T00:47:48.794Z,6.53
2023-01-19T00:50:17.719Z,6.50
2023-01-19T00:52:45.678Z,5.63
2023-01-19T00:55:15.657Z,6.70
2023-01-19T00:57:43.613Z,6.00
2023-01-19T01:00:13.171Z,5.73
2023-01-19T01:02:41.525Z,5.53
2023-01-19T01:05:11.704Z,6.10
2023-01-19T01:07:41.405Z,6.60
2023-01-19T01:10:10.578Z,6.10
2023-01-19T01:12:38.741Z,6.03
2023-01-19T01:15:08.270Z,5.63
2023-01-19T01:17:35.778Z,6.20
2023-01-19T01:20:04.574Z,5.87
2023-01-19T01:22:33.422Z,5.93
2023-01-19T01:25:00.976Z,5.97
2023-01-19T01:27:28.390Z,6.00
2023-01-19T01:29:55.781Z,6.13
2023-01-19T01:32:23.383Z,6.33
2023-01-19T01:34:50.851Z,6.20
2023-01-19T01:37:18.293Z,6.20
2023-01-19T01:39:47.106Z,6.10
2023-01-19T01:42:18.333Z,6.03
2023-01-19T01:44:51.336Z,6.53
2023-01-19T01:47:28.671Z,6.67
2023-01-19T01:50:02.538Z,6.50
2023-01-19T01:52:32.773Z,6.80
2023-01-19T01:55:03.738Z,6.73
2023-01-19T01:57:31.189Z,6.37
2023-01-19T01:59:59.896Z,6.23
2023-01-19T02:02:48.668Z,6.40
2023-01-19T02:05:19.700Z,6.23
2023-01-19T02:08:09.259Z,6.40
2023-01-19T02:10:56.590Z,6.53
2023-01-19T02:13:25.504Z,6.63
2023-01-19T02:15:54.585Z,6.07
2023-01-19T02:18:23.707Z,5.90
2023-01-19T02:21:04.542Z,5.73
2023-01-19T02:23:39.703Z,5.53
2023-01-19T02:26:10.315Z,5.93
2023-01-19T02:28:41.982Z,5.87
2023-01-19T02:31:10.507Z,6.03
2023-01-19T02:33:38.479Z,6.50
2023-01-19T02:36:09.000Z,6.40
2023-01-19T02:38:39.084Z,6.30
2023-01-19T02:41:08.158Z,6.50
2023-01-19T02:43:36.587Z,6.27
2023-01-19T02:46:04.290Z,6.47
2023-01-19T02:48:32.153Z,6.00
2023-01-19T02:51:04.230Z,5.90
2023-01-19T02:54:01.502Z,5.93
2023-01-19T02:56:45.478Z,6.10
2023-01-19T02:59:19.881Z,6.23
2023-01-19T03:02:00.401Z,6.17
2023-01-19T03:04:34.539Z,6.10
2023-01-19T03:07:10.169Z,6.10
2023-01-19T03:09:45.873Z,6.07
2023-01-19T03:12:22.898Z,5.90
2023-01-19T03:14:50.960Z,5.90
2023-01-19T03:17:19.567Z,5.60
2023-01-19T03:19:50.316Z,6.17
2023-01-19T03:22:22.454Z,6.07
2023-01-19T03:24:53.507Z,6.00
2023-01-19T03:27:27.526Z,5.87
2023-01-19T03:30:00.277Z,6.50
2023-01-19T03:32:32.808Z,6.50
2023-01-19T03:35:02.855Z,6.37
2023-01-19T03:37:32.599Z,6.27
2023-01-19T03:40:00.470Z,6.27
2023-01-19T03:42:30.052Z,6.40
2023-01-19T03:45:01.304Z,6.63
2023-01-19T03:47:29.335Z,6.50
2023-01-19T03:49:57.640Z,6.50
2023-01-19T03:52:29.891Z,7.03
2023-01-19T03:54:57.388Z,6.73
2023-01-19T03:57:24.893Z,6.73
2023-01-19T03:59:53.927Z,6.57
2023-01-19T04:02:21.460Z,7.67
2023-01-19T04:04:48.915Z,6.93
2023-01-19T04:07:16.387Z,7.10
2023-01-19T04:09:43.810Z,7.47
2023-01-19T04:12:11.275Z,7.40
2023-01-19T04:14:38.759Z,8.20
2023-01-19T04:17:07.573Z,8.00
2023-01-19T04:19:34.994Z,7.23
2023-01-19T04:22:02.591Z,7.73
2023-01-19T04:24:30.065Z,7.50
2023-01-19T04:26:57.493Z,7.90
2023-01-19T04:29:25.324Z,7.90
2023-01-19T04:31:52.754Z,7.57
2023-01-19T04:34:21.509Z,7.37
2023-01-19T04:36:50.987Z,7.27
2023-01-19T04:39:18.471Z,6.80
2023-01-19T04:41:45.899Z,7.53
2023-01-19T04:44:13.314Z,7.70
2023-01-19T04:46:41.009Z,7.37
2023-01-19T04:49:09.759Z,7.10
2023-01-19T04:51:38.494Z,7.63
2023-01-19T04:54:08.745Z,7.50
2023-01-19T04:56:36.611Z,7.30
2023-01-19T04:59:04.235Z,7.63
2023-01-19T05:01:31.778Z,7.43
2023-01-19T05:04:00.413Z,7.77
2023-01-19T05:06:27.856Z,7.83
2023-01-19T05:08:56.639Z,7.83
2023-01-19T05:11:24.063Z,7.90
2023-01-19T05:13:51.605Z,8.33
2023-01-19T05:16:19.183Z,7.53
2023-01-19T05:18:46.638Z,8.97
2023-01-19T05:21:14.155Z,8.17
2023-01-19T05:23:41.616Z,8.40
2023-01-19T05:26:10.523Z,8.23
2023-01-19T05:28:38.197Z,9.37
2023-01-19T05:31:06.343Z,8.53
2023-01-19T05:33:33.887Z,8.63
2023-01-19T05:36:01.547Z,8.73
2023-01-19T05:38:35.411Z,8.37
2023-01-19T05:41:03.315Z,8.07
2023-01-19T05:43:32.112Z,8.27
2023-01-19T05:45:59.547Z,8.10
2023-01-19T05:48:26.981Z,8.43
2023-01-19T05:50:58.976Z,8.77
2023-01-19T05:53:26.952Z,8.63
2023-01-19T05:55:54.545Z,8.57
2023-01-19T05:58:22.008Z,8.33
2023-01-19T06:00:50.857Z,9.00
2023-01-19T06:03:18.403Z,9.33
2023-01-19T06:05:45.910Z,8.20
2023-01-19T06:08:13.355Z,8.63
2023-01-19T06:10:41.150Z,9.80
2023-01-19T06:13:09.644Z,9.47
2023-01-19T06:15:37.481Z,8.93
2023-01-19T06:18:06.560Z,9.77
2023-01-19T06:20:34.004Z,9.00
2023-01-19T06:23:02.131Z,9.17
2023-01-19T06:25:29.779Z,9.53
2023-01-19T06:27:57.199Z,9.10
2023-01-19T06:30:24.694Z,9.63
2023-01-19T06:32:52.163Z,9.20
2023-01-19T06:35:20.915Z,9.07
2023-01-19T06:37:48.377Z,9.17
2023-01-19T06:40:15.988Z,9.90
2023-01-19T06:42:43.500Z,9.77
2023-01-19T06:45:11.681Z,9.50
2023-01-19T06:47:39.080Z,9.13
2023-01-19T06:50:07.124Z,9.00
2023-01-19T06:52:42.057Z,9.13
2023-01-19T06:55:10.803Z,9.03
2023-01-19T06:57:38.503Z,8.83
2023-01-19T07:00:08.780Z,9.20
2023-01-19T07:02:36.894Z,9.67
2023-01-19T07:05:06.660Z,9.13
2023-01-19T07:07:34.172Z,9.60
2023-01-19T07:10:03.101Z,9.60
2023-01-19T07:12:31.522Z,10.10
2023-01-19T07:14:58.982Z,9.97
2023-01-19T07:17:26.620Z,9.63
2023-01-19T07:19:55.128Z,10.03
2023-01-19T07:22:22.558Z,9.87
2023-01-19T07:24:50.011Z,9.90
2023-01-19T07:27:18.819Z,10.93
2023-01-19T07:29:46.277Z,10.47
2023-01-19T07:32:14.603Z,10.33
2023-01-19T07:34:42.061Z,10.30
2023-01-19T07:37:09.510Z,10.53
2023-01-19T07:39:37.386Z,10.80
2023-01-19T07:42:05.346Z,10.90
2023-01-19T07:44:34.161Z,10.67
2023-01-19T07:47:01.617Z,10.60
2023-01-19T07:49:29.049Z,10.43
2023-01-19T07:51:56.951Z,11.03
2023-01-19T07:54:24.445Z,10.80
2023-01-19T07:56:54.687Z,11.13
2023-01-19T07:59:22.419Z,11.13
2023-01-19T08:01:52.073Z,10.37
2023-01-19T08:04:19.966Z,10.63
2023-01-19T08:06:47.788Z,10.57
2023-01-19T08:09:15.252Z,10.13
2023-01-19T08:11:42.687Z,10.97
2023-01-19T08:14:10.517Z,11.17
2023-01-19T08:16:38.196Z,11.63
2023-01-19T08:19:07.024Z,10.70
2023-01-19T08:21:35.829Z,10.63
2023-01-19T08:24:03.355Z,10.87
2023-01-19T08:26:32.859Z,9.93
2023-01-19T08:29:02.349Z,9.97
2023-01-19T08:31:30.105Z,10.10
2023-01-19T08:33:57.916Z,9.40
2023-01-19T08:36:27.006Z,10.40
2023-01-19T08:38:54.588Z,10.07
2023-01-19T08:41:22.232Z,9.77
2023-01-19T08:43:50.123Z,9.27
2023-01-19T08:46:20.687Z,9.37
2023-01-19T08:48:49.303Z,9.93
2023-01-19T08:51:17.456Z,9.80
2023-01-19T08:53:46.366Z,9.90
2023-01-19T08:56:14.599Z,9.77
2023-01-19T08:58:43.267Z,9.80
2023-01-19T09:01:14.557Z,9.13
2023-01-19T09:03:42.085Z,8.70
2023-01-19T09:06:10.751Z,8.73
2023-01-19T09:08:38.365Z,8.87
2023-01-19T09:11:11.081Z,8.70
2023-01-19T09:13:39.827Z,8.97
2023-01-19T09:16:08.539Z,8.20
2023-01-19T09:18:36.800Z,9.50
2023-01-19T09:21:04.797Z,9.07
2023-01-19T09:23:32.382Z,8.50
2023-01-19T09:26:01.669Z,9.40
2023-01-19T09:28:30.706Z,8.33
2023-01-19T09:30:58.701Z,9.13
2023-01-19T09:33:26.337Z,8.20
2023-01-19T09:35:53.791Z,8.40
2023-01-19T09:38:22.295Z,8.00
2023-01-19T09:40:52.381Z,8.30
2023-01-19T09:43:29.462Z,8.17
2023-01-19T09:46:00.372Z,8.47
2023-01-19T09:48:37.770Z,8.47
2023-01-19T09:51:08.597Z,8.00
2023-01-19T09:53:50.319Z,8.60
2023-01-19T09:56:20.328Z,7.93
2023-01-19T09:58:48.898Z,7.90
2023-01-19T10:01:35.314Z,8.30
2023-01-19T10:04:27.263Z,8.33
2023-01-19T10:07:04.244Z,8.50
2023-01-19T10:09:37.783Z,8.27
2023-01-19T10:12:13.467Z,8.27
2023-01-19T10:14:46.875Z,8.60
2023-01-19T10:17:24.967Z,8.23
2023-01-19T10:19:56.241Z,8.67
2023-01-19T10:22:26.046Z,8.93
2023-01-19T10:24:56.778Z,8.60
2023-01-19T10:27:29.083Z,8.03
2023-01-19T10:29:57.950Z,8.57
2023-01-19T10:32:30.490Z,8.70
2023-01-19T10:35:00.895Z,8.60
2023-01-19T10:37:32.545Z,8.87
2023-01-19T10:40:08.664Z,9.20
2023-01-19T10:42:36.697Z,8.90
2023-01-19T10:45:04.831Z,9.60
2023-01-19T10:47:37.011Z,9.80
2023-01-19T10:50:24.133Z,9.20
2023-01-19T10:52:53.235Z,8.47
2023-01-19T10:55:27.396Z,8.97
2023-01-19T10:57:54.981Z,7.87
2023-01-19T11:00:34.323Z,8.63
2023-01-19T11:03:03.868Z,8.47
2023-01-19T11:05:33.837Z,8.07
2023-01-19T11:08:01.457Z,8.23
2023-01-19T11:10:30.321Z,9.10
2023-01-19T11:13:04.261Z,8.03
2023-01-19T11:15:34.738Z,8.13
2023-01-19T11:18:06.308Z,7.50
2023-01-19T11:20:43.912Z,8.03
2023-01-19T11:23:23.052Z,8.30
2023-01-19T11:25:52.405Z,7.40
2023-01-19T11:28:21.801Z,7.63
2023-01-19T11:30:56.937Z,6.93
2023-01-19T11:33:28.160Z,7.80
2023-01-19T11:36:04.251Z,7.20
2023-01-19T11:38:33.141Z,6.90
2023-01-19T11:41:04.082Z,6.07
2023-01-19T11:43:47.384Z,6.23
2023-01-19T11:46:17.324Z,6.10
2023-01-19T11:48:49.652Z,6.30
2023-01-19T11:51:19.709Z,6.00
2023-01-19T11:53:50.153Z,5.67
2023-01-19T11:56:20.435Z,6.17
2023-01-19T11:58:47.925Z,6.00
2023-01-19T12:01:21.276Z,5.83
2023-01-19T12:03:56.838Z,5.90
2023-01-19T12:06:28.688Z,5.70
2023-01-19T12:08:59.690Z,5.70
2023-01-19T12:11:33.745Z,5.03
2023-01-19T12:14:01.691Z,5.47
2023-01-19T12:16:31.246Z,5.17
2023-01-19T12:19:03.418Z,5.33
2023-01-19T12:21:30.904Z,4.80
2023-01-19T12:24:13.263Z,5.07
2023-01-19T12:26:49.721Z,5.57
2023-01-19T12:29:21.776Z,5.30
2023-01-19T12:32:19.769Z,5.17
2023-01-19T12:34:49.760Z,4.93
2023-01-19T12:37:37.353Z,5.40
2023-01-19T12:40:19.662Z,5.10
2023-01-19T12:42:48.849Z,5.10
2023-01-19T12:45:22.258Z,5.37
2023-01-19T12:47:54.110Z,5.40
2023-01-19T12:50:25.707Z,5.43
2023-01-19T12:52:57.197Z,4.83
2023-01-19T12:55:27.638Z,5.17
2023-01-19T12:58:00.019Z,5.50
2023-01-19T13:00:39.030Z,5.67
2023-01-19T13:03:39.850Z,5.13
2023-01-19T13:06:08.693Z,5.10
2023-01-19T13:08:59.566Z,5.17
2023-01-19T13:11:31.359Z,5.13
2023-01-19T13:14:36.522Z,4.80
2023-01-19T13:17:25.448Z,4.37
2023-01-19T13:20:03.022Z,4.60
2023-01-19T13:23:18.812Z,4.90
2023-01-19T13:26:05.058Z,4.93
2023-01-19T13:28:44.053Z,4.80
2023-01-19T13:31:13.033Z,4.37
2023-01-19T13:33:48.564Z,5.80
2023-01-19T13:36:30.862Z,5.27
2023-01-19T13:39:02.485Z,5.30
2023-01-19T13:41:36.298Z,5.47
2023-01-19T13:44:09.041Z,5.17
2023-01-19T13:46:38.498Z,6.00
2023-01-19T13:49:18.063Z,5.00
2023-01-19T13:51:45.793Z,5.63
2023-01-19T13:54:17.765Z,6.00
2023-01-19T13:56:50.049Z,5.67
2023-01-19T13:59:17.610Z,5.63
2023-01-19T14:01:47.004Z,5.50
2023-01-19T14:04:29.567Z,5.37
2023-01-19T14:07:00.684Z,5.07
2023-01-19T14:09:28.314Z,5.37
2023-01-19T14:12:11.627Z,5.60
2023-01-19T14:14:39.750Z,5.70
2023-01-19T14:17:21.736Z,5.50
2023-01-19T14:19:50.271Z,5.70
2023-01-19T14:22:17.774Z,5.70
2023-01-19T14:24:45.317Z,5.33
2023-01-19T14:27:22.614Z,5.30
2023-01-19T14:29:53.619Z,5.53
2023-01-19T14:32:22.675Z,5.43
2023-01-19T14:34:51.842Z,5.23
2023-01-19T14:37:26.091Z,5.63
2023-01-19T14:39:58.094Z,6.00
2023-01-19T14:42:29.459Z,5.63
2023-01-19T14:44:59.537Z,5.40
2023-01-19T14:47:30.247Z,5.67
2023-01-19T14:50:01.125Z,5.80
2023-01-19T14:52:32.157Z,5.40
2023-01-19T14:55:02.927Z,5.33
2023-01-19T14:57:31.679Z,5.30
2023-01-19T14:59:59.135Z,5.50
2023-01-19T15:02:26.745Z,6.13
2023-01-19T15:04:55.482Z,5.93
2023-01-19T15:07:25.854Z,5.87
2023-01-19T15:09:53.503Z,6.20
2023-01-19T15:12:23.955Z,5.70
2023-01-19T15:14:52.827Z,6.27
2023-01-19T15:17:25.380Z,5.50
2023-01-19T15:19:54.467Z,6.10
2023-01-19T15:22:23.116Z,5.87
2023-01-19T15:24:50.703Z,6.30
2023-01-19T15:27:19.427Z,6.00
2023-01-19T15:29:46.971Z,6.17
2023-01-19T15:32:16.148Z,5.80
2023-01-19T15:34:43.636Z,6.30
2023-01-19T15:37:11.135Z,5.57
2023-01-19T15:39:39.597Z,5.50
2023-01-19T15:42:11.374Z,6.30
2023-01-19T15:44:39.048Z,6.10
2023-01-19T15:47:06.593Z,6.10
2023-01-19T15:49:35.417Z,5.90
2023-01-19T15:52:02.846Z,6.40
2023-01-19T15:54:30.258Z,6.57
2023-01-19T15:56:57.678Z,6.43
2023-01-19T15:59:25.179Z,7.00
2023-01-19T16:01:52.882Z,7.10
2023-01-19T16:04:20.428Z,7.40
2023-01-19T16:06:49.901Z,7.03
2023-01-19T16:09:19.977Z,7.53
2023-01-19T16:11:47.410Z,7.90
2023-01-19T16:14:17.312Z,7.63
2023-01-19T16:16:46.183Z,6.90
2023-01-19T16:19:15.123Z,7.23
2023-01-19T16:21:43.771Z,7.90
2023-01-19T16:24:12.582Z,7.90
2023-01-19T16:26:40.065Z,7.90
2023-01-19T16:29:10.663Z,7.93
2023-01-19T16:31:38.707Z,7.80
2023-01-19T16:34:06.432Z,7.97
2023-01-19T16:36:36.284Z,8.33
2023-01-19T16:39:06.658Z,8.57
2023-01-19T16:41:36.514Z,8.60
2023-01-19T16:44:05.148Z,8.03
2023-01-19T16:46:35.066Z,8.50
2023-01-19T16:49:04.136Z,8.40
2023-01-19T16:51:31.839Z,8.33
2023-01-19T16:53:59.338Z,8.47
2023-01-19T16:56:26.779Z,8.70
2023-01-19T16:58:55.914Z,8.80
2023-01-19T17:01:24.463Z,8.87
2023-01-19T17:03:52.053Z,9.50
2023-01-19T17:06:22.571Z,8.47
2023-01-19T17:08:50.885Z,9.00
2023-01-19T17:11:20.796Z,9.20
2023-01-19T17:13:48.705Z,8.83
2023-01-19T17:16:17.660Z,8.70
2023-01-19T17:18:45.207Z,9.03
2023-01-19T17:21:14.028Z,9.40
2023-01-19T17:23:43.684Z,9.97
2023-01-19T17:26:11.776Z,9.77
2023-01-19T17:28:40.848Z,10.10
2023-01-19T17:31:10.617Z,9.73
2023-01-19T17:33:40.304Z,9.73
2023-01-19T17:36:10.288Z,10.10
2023-01-19T17:38:37.997Z,10.03
2023-01-19T17:41:14.231Z,10.77
2023-01-19T17:43:41.945Z,10.27
2023-01-19T17:46:09.643Z,11.20
2023-01-19T17:48:37.164Z,10.73
2023-01-19T17:51:07.900Z,11.20
2023-01-19T17:53:37.562Z,11.43
2023-01-19T17:56:05.404Z,11.03
2023-01-19T17:58:33.194Z,11.63
2023-01-19T18:01:08.933Z,11.87
2023-01-19T18:03:36.592Z,12.67
2023-01-19T18:06:04.072Z,12.10
2023-01-19T18:08:34.525Z,10.63
2023-01-19T18:11:03.103Z,11.13
2023-01-19T18:13:31.012Z,11.47
2023-01-19T18:16:02.174Z,11.93
2023-01-19T18:18:30.098Z,11.70
2023-01-19T18:21:00.188Z,11.90
2023-01-19T18:23:27.762Z,12.60
2023-01-19T18:26:00.663Z,11.90
2023-01-19T18:28:28.812Z,11.80
2023-01-19T18:30:56.549Z,11.77
2023-01-19T18:33:24.524Z,11.80
2023-01-19T18:35:52.530Z,11.20
2023-01-19T18:38:20.024Z,10.93
2023-01-19T18:40:47.650Z,10.77
2023-01-19T18:43:16.435Z,10.53
2023-01-19T18:45:47.992Z,10.27
2023-01-19T18:48:17.855Z,10.13
2023-01-19T18:50:45.455Z,10.57
2023-01-19T18:53:13.064Z,11.17
2023-01-19T18:55:40.491Z,10.03
2023-01-19T18:58:08.712Z,9.83
2023-01-19T19:00:37.547Z,10.23
2023-01-19T19:03:10.077Z,9.80
2023-01-19T19:05:37.612Z,9.50
2023-01-19T19:08:05.688Z,8.90
2023-01-19T19:10:33.189Z,8.47
2023-01-19T19:13:00.718Z,8.63
2023-01-19T19:15:28.210Z,8.27
2023-01-19T19:17:56.988Z,8.43
2023-01-19T19:20:24.490Z,8.43
2023-01-19T19:22:51.995Z,9.10
2023-01-19T19:25:19.551Z,8.80
2023-01-19T19:27:51.454Z,8.83
2023-01-19T19:30:19.585Z,8.67
2023-01-19T19:32:52.686Z,10.37
2023-01-19T19:35:21.505Z,10.17
2023-01-19T19:37:49.199Z,10.30
2023-01-19T19:40:17.365Z,10.60
2023-01-19T19:42:44.879Z,10.70
2023-01-19T19:45:14.698Z,10.83
2023-01-19T19:47:42.904Z,10.87
2023-01-19T19:50:11.817Z,10.27
2023-01-19T19:52:41.470Z,11.30
2023-01-19T19:55:11.040Z,11.10
2023-01-19T19:57:38.716Z,11.30
2023-01-19T20:00:07.578Z,11.20
2023-01-19T20:02:35.066Z,11.83
2023-01-19T20:05:02.696Z,11.47
2023-01-19T20:07:30.229Z,11.63
2023-01-19T20:09:59.020Z,11.80
2023-01-19T20:12:27.232Z,11.37
2023-01-19T20:14:54.687Z,11.33
2023-01-19T20:17:23.147Z,11.97
2023-01-19T20:19:50.597Z,12.50
2023-01-19T20:22:18.075Z,13.70
2023-01-19T20:24:45.894Z,13.87
2023-01-19T20:27:14.711Z,12.77
2023-01-19T20:29:42.122Z,12.67
2023-01-19T20:32:10.644Z,13.33
2023-01-19T20:34:38.369Z,13.10
2023-01-19T20:37:06.057Z,12.83
2023-01-19T20:39:35.225Z,12.40
2023-01-19T20:42:02.720Z,12.60
2023-01-19T20:44:31.504Z,12.57
2023-01-19T20:46:59.026Z,11.53
2023-01-19T20:49:26.743Z,11.73
2023-01-19T20:51:54.214Z,12.63
2023-01-19T20:54:24.267Z,13.10
2023-01-19T20:56:51.714Z,11.67
2023-01-19T20:59:19.520Z,12.90
2023-01-19T21:01:49.426Z,13.17
2023-01-19T21:04:17.168Z,11.97
2023-01-19T21:06:44.626Z,12.20
2023-01-19T21:09:12.087Z,14.33
2023-01-19T21:11:40.570Z,13.27
2023-01-19T21:14:08.577Z,13.77
2023-01-19T21:16:37.258Z,12.80
2023-01-19T21:19:06.442Z,12.80
2023-01-19T21:21:33.883Z,12.97
2023-01-19T21:24:02.800Z,14.03
2023-01-19T21:26:31.194Z,12.30
2023-01-19T21:28:58.921Z,13.00
2023-01-19T21:31:28.070Z,12.40
2023-01-19T21:33:56.136Z,13.47
2023-01-19T21:36:25.379Z,13.97
2023-01-19T21:38:55.333Z,13.60
2023-01-19T21:41:22.781Z,14.40
2023-01-19T21:43:50.188Z,13.67
2023-01-19T21:46:20.467Z,13.33
2023-01-19T21:48:47.949Z,12.73
2023-01-19T21:51:15.807Z,14.30
2023-01-19T21:53:44.632Z,13.93
2023-01-19T21:56:12.149Z,14.13
2023-01-19T21:58:39.832Z,13.67
2023-01-19T22:01:10.580Z,12.77
2023-01-19T22:03:38.228Z,12.90
2023-01-19T22:06:07.086Z,14.80
2023-01-19T22:08:34.803Z,12.80
2023-01-19T22:11:05.598Z,13.30
2023-01-19T22:13:33.530Z,13.60
2023-01-19T22:16:01.563Z,12.97
2023-01-19T22:18:29.329Z,13.40
2023-01-19T22:20:56.851Z,13.17
2023-01-19T22:23:24.412Z,13.37
2023-01-19T22:25:51.899Z,14.20
2023-01-19T22:28:20.703Z,13.07
2023-01-19T22:30:48.260Z,12.80
2023-01-19T22:33:15.728Z,13.80
2023-01-19T22:35:43.291Z,13.30
2023-01-19T22:38:10.684Z,14.50
2023-01-19T22:40:38.116Z,12.97
2023-01-19T22:43:05.604Z,13.50
2023-01-19T22:45:34.378Z,13.33
2023-01-19T22:48:01.844Z,12.63
2023-01-19T22:50:29.294Z,13.13
2023-01-19T22:52:57.701Z,13.97
2023-01-19T22:55:25.325Z,13.97
2023-01-19T22:57:52.766Z,12.97
2023-01-19T23:00:21.613Z,14.10
2023-01-19T23:02:50.377Z,12.87
2023-01-19T23:05:17.837Z,13.03
2023-01-19T23:07:45.264Z,12.60
2023-01-19T23:10:12.815Z,12.37
2023-01-19T23:12:40.259Z,12.70
2023-01-19T23:15:08.867Z,13.90
2023-01-19T23:17:36.287Z,13.13
2023-01-19T23:20:06.032Z,12.43
2023-01-19T23:22:33.606Z,13.10
2023-01-19T23:25:01.044Z,14.47
2023-01-19T23:27:28.479Z,13.93
2023-01-19T23:29:55.936Z,13.47
2023-01-19T23:32:23.478Z,12.80
2023-01-19T23:34:50.916Z,12.70
2023-01-19T23:37:19.671Z,13.10
2023-01-19T23:39:47.099Z,11.63
2023-01-19T23:42:14.519Z,13.03
2023-01-19T23:44:43.862Z,13.70
2023-01-19T23:47:11.279Z,13.87
2023-01-19T23:49:40.011Z,13.30
2023-01-19T23:52:07.473Z,14.00
2023-01-19T23:54:36.424Z,14.83
2023-01-19T23:57:03.822Z,14.57
2023-01-19T23:59:31.238Z,13.17
